createdAt,value
2023-02-16T00:00:45.016Z,15.60
2023-02-16T00:03:15.609Z,15.43
2023-02-16T00:05:42.396Z,15.43
2023-02-16T00:08:09.164Z,16.73
2023-02-16T00:10:38.082Z,14.10
2023-02-16T00:13:47.376Z,15.70
2023-02-16T00:16:23.006Z,14.97
2023-02-16T00:18:50.033Z,14.53
2023-02-16T00:21:17.528Z,15.17
2023-02-16T00:23:44.839Z,15.17
2023-02-16T00:26:17.917Z,16.50
2023-02-16T00:28:44.947Z,14.57
2023-02-16T00:31:18.454Z,16.63
2023-02-16T00:33:46.093Z,15.23
2023-02-16T00:36:12.853Z,15.40
2023-02-16T00:38:39.564Z,15.20
2023-02-16T00:41:26.540Z,15.07
2023-02-16T00:43:54.927Z,15.07
2023-02-16T00:46:21.715Z,14.77
2023-02-16T00:48:48.452Z,14.70
2023-02-16T00:51:25.561Z,15.77
2023-02-16T00:53:52.835Z,15.80
2023-02-16T00:56:21.046Z,14.10
2023-02-16T00:58:50.642Z,16.43
2023-02-16T01:01:20.827Z,15.27
2023-02-16T01:03:47.726Z,14.53
2023-02-16T01:06:32.880Z,17.20
2023-02-16T01:09:34.231Z,14.67
2023-02-16T01:12:01.994Z,14.30
2023-02-16T01:14:33.458Z,16.10
2023-02-16T01:17:00.233Z,16.00
2023-02-16T01:19:27.095Z,16.30
2023-02-16T01:21:53.798Z,15.80
2023-02-16T01:24:20.603Z,14.87
2023-02-16T01:26:50.176Z,15.93
2023-02-16T01:29:19.211Z,15.47
2023-02-16T01:31:46.792Z,16.77
2023-02-16T01:34:13.744Z,16.33
2023-02-16T01:36:44.489Z,15.83
2023-02-16T01:39:19.517Z,16.07
2023-02-16T01:42:19.504Z,15.60
2023-02-16T01:45:01.794Z,15.07
2023-02-16T01:47:44.863Z,15.20
2023-02-16T01:50:56.095Z,15.87
2023-02-16T01:53:30.930Z,16.00
2023-02-16T01:56:03.216Z,15.50
2023-02-16T01:58:38.238Z,14.87
2023-02-16T02:01:05.336Z,15.67
2023-02-16T02:03:53.755Z,16.23
2023-02-16T02:06:26.988Z,14.87
2023-02-16T02:09:07.885Z,15.10
2023-02-16T02:11:46.303Z,14.50
2023-02-16T02:14:20.032Z,15.10
2023-02-16T02:17:06.014Z,15.40
2023-02-16T02:19:45.684Z,15.30
2023-02-16T02:22:36.719Z,16.27
2023-02-16T02:25:15.119Z,15.23
2023-02-16T02:27:52.322Z,15.90
2023-02-16T02:30:57.728Z,16.63
2023-02-16T02:33:31.549Z,15.70
2023-02-16T02:36:40.571Z,17.10
2023-02-16T02:39:45.521Z,15.90
2023-02-16T02:42:21.351Z,16.23
2023-02-16T02:44:59.731Z,14.40
2023-02-16T02:47:44.441Z,16.03
2023-02-16T02:50:30.133Z,14.70
2023-02-16T02:53:01.469Z,16.03
2023-02-16T02:55:49.676Z,15.90
2023-02-16T02:58:37.122Z,15.63
2023-02-16T03:01:04.769Z,16.20
2023-02-16T03:03:35.920Z,16.07
2023-02-16T03:06:08.627Z,14.53
2023-02-16T03:08:40.074Z,14.87
2023-02-16T03:11:40.151Z,15.90
2023-02-16T03:14:32.478Z,14.33
2023-02-16T03:17:20.432Z,14.63
2023-02-16T03:20:09.305Z,14.70
2023-02-16T03:22:55.665Z,15.50
2023-02-16T03:25:43.651Z,14.70
2023-02-16T03:28:30.532Z,14.87
2023-02-16T03:30:59.465Z,15.03
2023-02-16T03:33:27.740Z,15.20
2023-02-16T03:35:55.374Z,16.20
2023-02-16T03:38:22.452Z,15.10
2023-02-16T03:40:50.873Z,16.40
2023-02-16T03:43:17.636Z,15.63
2023-02-16T03:45:45.322Z,15.37
2023-02-16T03:48:12.473Z,15.37
2023-02-16T03:50:39.172Z,14.60
2023-02-16T03:53:08.580Z,14.57
2023-02-16T03:55:40.093Z,16.23
2023-02-16T03:58:08.434Z,14.70
2023-02-16T04:00:36.402Z,15.97
2023-02-16T04:03:04.744Z,15.00
2023-02-16T04:05:32.095Z,17.07
2023-02-16T04:07:58.989Z,14.33
2023-02-16T04:10:26.264Z,15.57
2023-02-16T04:12:53.111Z,15.57
2023-02-16T04:15:22.561Z,16.00
2023-02-16T04:17:50.088Z,16.70
2023-02-16T04:20:20.038Z,15.70
2023-02-16T04:22:47.548Z,14.83
2023-02-16T04:25:15.170Z,15.40
2023-02-16T04:27:42.931Z,15.20
2023-02-16T04:30:12.582Z,15.23
2023-02-16T04:32:39.407Z,15.17
2023-02-16T04:35:06.939Z,16.27
2023-02-16T04:37:33.993Z,16.70
2023-02-16T04:40:00.698Z,16.10
2023-02-16T04:42:27.405Z,14.93
2023-02-16T04:44:54.069Z,15.97
2023-02-16T04:47:21.863Z,15.70
2023-02-16T04:49:50.314Z,16.00
2023-02-16T04:52:17.496Z,16.40
2023-02-16T04:54:44.200Z,14.70
2023-02-16T04:57:11.749Z,16.17
2023-02-16T04:59:38.713Z,16.97
2023-02-16T05:02:05.720Z,16.07
2023-02-16T05:04:32.496Z,14.93
2023-02-16T05:06:59.413Z,15.20
2023-02-16T05:09:26.230Z,16.80
2023-02-16T05:12:11.569Z,14.97
2023-02-16T05:14:47.624Z,15.20
2023-02-16T05:17:23.960Z,15.93
2023-02-16T05:19:53.922Z,16.17
2023-02-16T05:22:21.011Z,15.73
2023-02-16T05:24:48.494Z,15.80
2023-02-16T05:27:21.163Z,15.17
2023-02-16T05:29:48.335Z,16.83
2023-02-16T05:32:15.114Z,16.27
2023-02-16T05:34:44.325Z,17.30
2023-02-16T05:37:12.259Z,15.50
2023-02-16T05:39:39.085Z,17.23
2023-02-16T05:42:05.910Z,17.23
2023-02-16T05:44:32.599Z,16.40
2023-02-16T05:46:59.331Z,15.60
2023-02-16T05:49:26.231Z,15.70
2023-02-16T05:51:52.906Z,16.37
2023-02-16T05:54:19.608Z,16.20
2023-02-16T05:56:48.903Z,15.47
2023-02-16T05:59:16.097Z,16.20
2023-02-16T06:01:43.322Z,17.37
2023-02-16T06:04:12.001Z,15.50
2023-02-16T06:06:39.749Z,15.60
2023-02-16T06:09:08.453Z,15.03
2023-02-16T06:11:35.856Z,16.90
2023-02-16T06:14:09.960Z,16.77
2023-02-16T06:16:38.650Z,15.63
2023-02-16T06:19:06.536Z,16.23
2023-02-16T06:21:33.663Z,16.80
2023-02-16T06:24:00.545Z,16.83
2023-02-16T06:26:27.431Z,14.83
2023-02-16T06:28:54.472Z,16.10
2023-02-16T06:31:21.605Z,15.70
2023-02-16T06:33:48.462Z,16.43
2023-02-16T06:36:15.598Z,16.00
2023-02-16T06:38:43.111Z,15.90
2023-02-16T06:41:10.198Z,14.43
2023-02-16T06:43:37.498Z,14.83
2023-02-16T06:46:04.847Z,16.77
2023-02-16T06:48:31.720Z,19.00
2023-02-16T06:50:58.484Z,16.10
2023-02-16T06:53:25.499Z,16.67
2023-02-16T06:55:52.358Z,17.67
2023-02-16T06:58:19.274Z,16.07
2023-02-16T07:00:46.094Z,16.37
2023-02-16T07:03:12.827Z,16.07
2023-02-16T07:05:39.608Z,16.20
2023-02-16T07:08:06.406Z,15.77
2023-02-16T07:10:48.607Z,15.90
2023-02-16T07:13:16.603Z,17.77
2023-02-16T07:15:43.416Z,16.33
2023-02-16T07:18:10.139Z,16.40
2023-02-16T07:20:37.832Z,16.43
2023-02-16T07:23:04.877Z,15.57
2023-02-16T07:25:31.583Z,17.20
2023-02-16T07:27:58.410Z,17.03
2023-02-16T07:30:28.082Z,16.77
2023-02-16T07:32:54.791Z,18.70
2023-02-16T07:35:22.797Z,16.00
2023-02-16T07:37:49.749Z,15.33
2023-02-16T07:40:16.539Z,15.07
2023-02-16T07:42:43.378Z,15.70
2023-02-16T07:45:10.075Z,15.77
2023-02-16T07:47:36.950Z,16.13
2023-02-16T07:50:04.111Z,14.67
2023-02-16T07:52:31.348Z,15.20
2023-02-16T07:54:59.212Z,15.83
2023-02-16T07:57:27.035Z,16.33
2023-02-16T07:59:54.612Z,15.70
2023-02-16T08:02:22.730Z,15.10
2023-02-16T08:04:49.902Z,15.80
2023-02-16T08:07:17.423Z,15.17
2023-02-16T08:09:44.765Z,15.60
2023-02-16T08:12:13.253Z,15.40
2023-02-16T08:14:40.469Z,15.43
2023-02-16T08:17:07.920Z,14.57
2023-02-16T08:19:35.049Z,14.63
2023-02-16T08:22:02.867Z,15.20
2023-02-16T08:24:29.602Z,14.40
2023-02-16T08:26:56.700Z,16.53
2023-02-16T08:29:24.468Z,16.23
2023-02-16T08:31:52.305Z,14.10
2023-02-16T08:34:20.429Z,15.83
2023-02-16T08:36:53.118Z,13.80
2023-02-16T08:39:22.855Z,15.57
2023-02-16T08:41:50.602Z,15.13
2023-02-16T08:44:18.800Z,15.20
2023-02-16T08:46:47.669Z,14.60
2023-02-16T08:49:17.465Z,14.07
2023-02-16T08:51:47.206Z,16.53
2023-02-16T08:54:22.579Z,15.10
2023-02-16T08:56:49.630Z,13.63
2023-02-16T08:59:17.958Z,15.27
2023-02-16T09:01:44.941Z,15.53
2023-02-16T09:04:13.005Z,13.47
2023-02-16T09:06:42.805Z,15.00
2023-02-16T09:09:10.134Z,14.47
2023-02-16T09:11:37.334Z,14.90
2023-02-16T09:14:04.926Z,13.33
2023-02-16T09:16:38.477Z,13.17
2023-02-16T09:19:06.567Z,14.80
2023-02-16T09:21:33.591Z,13.63
2023-02-16T09:24:03.622Z,15.07
2023-02-16T09:26:39.075Z,15.80
2023-02-16T09:29:07.079Z,14.43
2023-02-16T09:31:37.253Z,14.70
2023-02-16T09:34:08.814Z,13.20
2023-02-16T09:36:37.774Z,14.63
2023-02-16T09:39:04.513Z,14.63
2023-02-16T09:41:34.173Z,13.27
2023-02-16T09:44:09.847Z,14.47
2023-02-16T09:46:38.938Z,14.40
2023-02-16T09:49:06.516Z,14.73
2023-02-16T09:51:40.939Z,14.30
2023-02-16T09:54:46.257Z,15.53
2023-02-16T09:57:24.254Z,14.57
2023-02-16T10:00:06.772Z,13.50
2023-02-16T10:02:39.596Z,14.23
2023-02-16T10:05:35.762Z,14.13
2023-02-16T10:08:11.551Z,14.03
2023-02-16T10:10:50.457Z,14.27
2023-02-16T10:13:40.752Z,15.83
2023-02-16T10:16:13.910Z,15.20
2023-02-16T10:18:49.302Z,15.30
2023-02-16T10:21:23.594Z,14.90
2023-02-16T10:23:58.775Z,15.40
2023-02-16T10:26:38.764Z,15.83
2023-02-16T10:29:16.960Z,16.67
2023-02-16T10:31:58.288Z,15.20
2023-02-16T10:34:43.490Z,14.60
2023-02-16T10:37:29.809Z,13.70
2023-02-16T10:39:59.589Z,13.40
2023-02-16T10:42:35.467Z,14.17
2023-02-16T10:45:43.424Z,14.60
2023-02-16T10:48:10.713Z,13.43
2023-02-16T10:51:02.550Z,13.37
2023-02-16T10:53:32.246Z,14.53
2023-02-16T10:55:59.445Z,14.10
2023-02-16T10:58:33.739Z,14.03
2023-02-16T11:01:08.499Z,14.03
2023-02-16T11:03:40.969Z,13.47
2023-02-16T11:06:21.743Z,13.90
2023-02-16T11:08:51.294Z,13.37
2023-02-16T11:11:19.952Z,13.03
2023-02-16T11:13:50.185Z,15.07
2023-02-16T11:16:23.591Z,14.50
2023-02-16T11:19:22.105Z,15.40
2023-02-16T11:21:56.421Z,15.10
2023-02-16T11:24:33.355Z,14.33
2023-02-16T11:27:07.373Z,15.07
2023-02-16T11:29:34.947Z,14.07
2023-02-16T11:32:09.603Z,13.63
2023-02-16T11:34:53.536Z,14.83
2023-02-16T11:37:33.077Z,14.60
2023-02-16T11:40:09.188Z,15.07
2023-02-16T11:42:41.828Z,17.50
2023-02-16T11:45:09.229Z,18.30
2023-02-16T11:47:38.603Z,14.70
2023-02-16T11:50:21.885Z,15.93
2023-02-16T11:52:51.581Z,14.37
2023-02-16T11:55:33.248Z,15.27
2023-02-16T11:58:26.501Z,14.97
2023-02-16T12:01:01.726Z,16.43
2023-02-16T12:03:34.610Z,17.27
2023-02-16T12:06:22.698Z,15.80
2023-02-16T12:09:07.321Z,16.13
2023-02-16T12:11:45.738Z,14.47
2023-02-16T12:14:33.696Z,14.70
2023-02-16T12:17:18.958Z,15.50
2023-02-16T12:19:48.111Z,16.00
2023-02-16T12:22:14.744Z,15.37
2023-02-16T12:24:50.398Z,15.50
2023-02-16T12:27:26.787Z,16.30
2023-02-16T12:30:11.481Z,15.10
2023-02-16T12:33:26.861Z,16.67
2023-02-16T12:36:03.950Z,15.80
2023-02-16T12:38:58.137Z,16.40
2023-02-16T12:41:33.297Z,18.60
2023-02-16T12:44:08.086Z,16.70
2023-02-16T12:46:47.676Z,16.90
2023-02-16T12:49:29.487Z,16.10
2023-02-16T12:52:07.216Z,16.80
2023-02-16T12:54:45.234Z,16.97
2023-02-16T12:57:20.460Z,17.03
2023-02-16T12:59:56.617Z,15.93
2023-02-16T13:02:40.552Z,16.97
2023-02-16T13:05:36.252Z,16.90
2023-02-16T13:08:42.892Z,16.67
2023-02-16T13:11:09.649Z,17.07
2023-02-16T13:13:38.343Z,17.57
2023-02-16T13:16:27.823Z,15.90
2023-02-16T13:18:57.192Z,17.97
2023-02-16T13:21:51.413Z,16.63
2023-02-16T13:24:36.012Z,15.70
2023-02-16T13:27:12.234Z,18.33
2023-02-16T13:30:08.912Z,16.67
2023-02-16T13:32:57.944Z,18.20
2023-02-16T13:35:36.449Z,16.37
2023-02-16T13:38:40.969Z,17.03
2023-02-16T13:41:19.705Z,15.10
2023-02-16T13:44:03.528Z,16.17
2023-02-16T13:46:41.476Z,16.30
2023-02-16T13:49:43.162Z,16.07
2023-02-16T13:52:11.626Z,16.07
2023-02-16T13:54:43.651Z,16.40
2023-02-16T13:57:15.118Z,16.87
2023-02-16T13:59:49.772Z,16.23
2023-02-16T14:02:54.370Z,16.17
2023-02-16T14:05:45.533Z,14.87
2023-02-16T14:08:14.833Z,15.77
2023-02-16T14:10:53.634Z,16.77
2023-02-16T14:13:36.644Z,18.03
2023-02-16T14:16:18.564Z,16.70
2023-02-16T14:18:55.448Z,16.13
2023-02-16T14:21:44.948Z,17.17
2023-02-16T14:24:32.718Z,15.80
2023-02-16T14:27:07.593Z,16.70
2023-02-16T14:29:58.871Z,15.90
2023-02-16T14:32:38.660Z,16.70
2023-02-16T14:35:08.122Z,15.47
2023-02-16T14:37:44.472Z,17.20
2023-02-16T14:40:18.894Z,15.63
2023-02-16T14:42:57.119Z,16.60
2023-02-16T14:45:37.843Z,16.77
2023-02-16T14:48:26.745Z,17.60
2023-02-16T14:51:25.029Z,15.60
2023-02-16T14:54:02.294Z,14.80
2023-02-16T14:56:44.593Z,16.27
2023-02-16T14:59:26.813Z,16.83
2023-02-16T15:01:53.609Z,15.10
2023-02-16T15:04:31.532Z,16.43
2023-02-16T15:07:03.156Z,15.70
2023-02-16T15:09:32.420Z,15.17
2023-02-16T15:12:23.272Z,15.73
2023-02-16T15:15:02.705Z,15.50
2023-02-16T15:17:37.094Z,15.50
2023-02-16T15:20:25.459Z,15.67
2023-02-16T15:22:58.089Z,16.20
2023-02-16T15:25:33.948Z,15.77
2023-02-16T15:28:22.430Z,15.67
2023-02-16T15:30:56.909Z,16.30
2023-02-16T15:33:23.669Z,15.60
2023-02-16T15:35:56.873Z,15.10
2023-02-16T15:38:25.962Z,15.57
2023-02-16T15:41:02.217Z,15.47
2023-02-16T15:43:47.557Z,15.73
2023-02-16T15:46:29.215Z,14.47
2023-02-16T15:48:56.474Z,15.57
2023-02-16T15:51:33.958Z,14.17
2023-02-16T15:54:03.573Z,15.10
2023-02-16T15:56:43.343Z,15.37
2023-02-16T15:59:38.531Z,14.20
2023-02-16T16:02:17.811Z,14.00
2023-02-16T16:04:54.894Z,15.00
2023-02-16T16:07:32.692Z,13.77
2023-02-16T16:10:00.281Z,14.33
2023-02-16T16:12:27.665Z,14.20
2023-02-16T16:14:58.020Z,14.27
2023-02-16T16:17:31.086Z,14.77
2023-02-16T16:20:17.272Z,13.87
2023-02-16T16:22:44.949Z,14.17
2023-02-16T16:25:38.538Z,15.10
2023-02-16T16:28:07.931Z,13.27
2023-02-16T16:30:43.644Z,13.30
2023-02-16T16:33:13.004Z,14.93
2023-02-16T16:35:50.643Z,13.30
2023-02-16T16:38:26.729Z,13.67
2023-02-16T16:40:57.238Z,14.20
2023-02-16T16:43:38.919Z,14.63
2023-02-16T16:46:20.253Z,13.67
2023-02-16T16:48:56.631Z,12.97
2023-02-16T16:51:28.917Z,14.77
2023-02-16T16:54:04.079Z,12.10
2023-02-16T16:56:34.899Z,13.03
2023-02-16T16:59:01.825Z,13.13
2023-02-16T17:01:29.941Z,13.20
2023-02-16T17:03:57.329Z,11.77
2023-02-16T17:06:25.304Z,12.60
2023-02-16T17:08:52.487Z,13.40
2023-02-16T17:11:32.751Z,12.90
2023-02-16T17:14:13.955Z,12.20
2023-02-16T17:16:44.453Z,12.97
2023-02-16T17:19:16.661Z,12.83
2023-02-16T17:21:44.561Z,12.00
2023-02-16T17:24:11.660Z,12.80
2023-02-16T17:26:38.722Z,13.47
2023-02-16T17:29:06.761Z,13.97
2023-02-16T17:31:34.127Z,12.70
2023-02-16T17:34:00.908Z,13.23
2023-02-16T17:36:28.225Z,12.70
2023-02-16T17:38:55.556Z,13.33
2023-02-16T17:41:27.797Z,11.87
2023-02-16T17:43:55.113Z,14.27
2023-02-16T17:46:23.409Z,13.70
2023-02-16T17:48:53.851Z,13.40
2023-02-16T17:51:22.159Z,14.10
2023-02-16T17:53:48.945Z,13.00
2023-02-16T17:56:18.714Z,13.17
2023-02-16T17:58:46.251Z,13.77
2023-02-16T18:01:14.815Z,12.23
2023-02-16T18:03:41.905Z,12.53
2023-02-16T18:06:16.305Z,11.43
2023-02-16T18:08:44.057Z,12.37
2023-02-16T18:11:11.445Z,13.03
2023-02-16T18:13:38.278Z,13.20
2023-02-16T18:16:07.429Z,11.70
2023-02-16T18:18:36.811Z,10.60
2023-02-16T18:21:03.949Z,10.37
2023-02-16T18:23:31.310Z,13.70
2023-02-16T18:25:58.053Z,11.13
2023-02-16T18:28:30.947Z,10.80
2023-02-16T18:30:58.282Z,10.60
2023-02-16T18:33:25.581Z,11.13
2023-02-16T18:35:54.745Z,9.50
2023-02-16T18:38:22.374Z,8.43
2023-02-16T18:40:49.755Z,7.53
2023-02-16T18:43:16.497Z,7.90
2023-02-16T18:45:43.398Z,6.73
2023-02-16T18:48:10.361Z,8.10
2023-02-16T18:50:37.181Z,6.23
2023-02-16T18:53:04.204Z,6.50
2023-02-16T18:55:33.957Z,7.00
2023-02-16T18:58:01.917Z,7.07
2023-02-16T19:00:29.003Z,7.47
2023-02-16T19:02:56.934Z,6.43
2023-02-16T19:05:24.374Z,7.40
2023-02-16T19:07:51.673Z,9.17
2023-02-16T19:10:19.260Z,7.67
2023-02-16T19:12:46.096Z,8.00
2023-02-16T19:15:12.875Z,8.20
2023-02-16T19:17:39.745Z,8.50
2023-02-16T19:20:09.797Z,6.67
2023-02-16T19:22:37.410Z,8.00
2023-02-16T19:25:06.076Z,8.60
2023-02-16T19:27:33.156Z,8.03
2023-02-16T19:30:00.272Z,9.23
2023-02-16T19:32:27.234Z,9.43
2023-02-16T19:34:54.042Z,9.23
2023-02-16T19:37:20.923Z,8.93
2023-02-16T19:39:47.654Z,9.87
2023-02-16T19:42:14.552Z,8.70
2023-02-16T19:44:41.392Z,9.83
2023-02-16T19:47:08.268Z,9.50
2023-02-16T19:49:36.482Z,10.67
2023-02-16T19:52:04.326Z,11.50
2023-02-16T19:54:34.770Z,11.60
2023-02-16T19:57:02.763Z,11.57
2023-02-16T19:59:30.413Z,12.60
2023-02-16T20:01:58.244Z,11.33
2023-02-16T20:04:25.151Z,11.77
2023-02-16T20:06:54.344Z,12.57
2023-02-16T20:09:22.072Z,12.70
2023-02-16T20:11:50.254Z,13.70
2023-02-16T20:14:16.970Z,13.57
2023-02-16T20:16:44.165Z,12.77
2023-02-16T20:19:11.036Z,13.40
2023-02-16T20:21:38.030Z,14.00
2023-02-16T20:24:05.809Z,13.30
2023-02-16T20:26:44.520Z,13.67
2023-02-16T20:29:16.035Z,14.00
2023-02-16T20:31:55.156Z,13.10
2023-02-16T20:34:23.482Z,13.33
2023-02-16T20:36:50.177Z,13.03
2023-02-16T20:39:16.901Z,13.87
2023-02-16T20:41:44.316Z,13.50
2023-02-16T20:44:12.070Z,13.80
2023-02-16T20:46:39.888Z,14.70
2023-02-16T20:49:07.443Z,13.97
2023-02-16T20:51:35.120Z,13.80
2023-02-16T20:54:02.805Z,13.00
2023-02-16T20:56:30.145Z,12.83
2023-02-16T20:58:58.072Z,14.50
2023-02-16T21:01:37.222Z,13.70
2023-02-16T21:04:05.140Z,13.80
2023-02-16T21:06:32.144Z,13.40
2023-02-16T21:08:58.947Z,13.60
2023-02-16T21:11:26.129Z,12.10
2023-02-16T21:13:53.427Z,14.27
2023-02-16T21:16:20.791Z,12.17
2023-02-16T21:18:47.624Z,15.37
2023-02-16T21:21:15.718Z,15.20
2023-02-16T21:23:48.160Z,14.43
2023-02-16T21:26:16.127Z,13.50
2023-02-16T21:28:43.049Z,19.17
2023-02-16T21:31:13.010Z,15.50
2023-02-16T21:33:40.418Z,16.10
2023-02-16T21:36:10.815Z,16.50
2023-02-16T21:38:38.488Z,14.43
2023-02-16T21:41:25.608Z,15.20
2023-02-16T21:43:59.334Z,14.80
2023-02-16T21:46:27.299Z,14.27
2023-02-16T21:48:55.130Z,14.70
2023-02-16T21:51:24.990Z,16.10
2023-02-16T21:53:53.347Z,13.37
2023-02-16T21:56:36.807Z,14.63
2023-02-16T21:59:05.988Z,16.53
2023-02-16T22:01:36.540Z,14.87
2023-02-16T22:04:04.281Z,14.13
2023-02-16T22:06:44.088Z,13.70
2023-02-16T22:09:14.837Z,13.73
2023-02-16T22:11:42.077Z,13.20
2023-02-16T22:14:08.786Z,14.00
2023-02-16T22:16:37.764Z,13.43
2023-02-16T22:19:07.623Z,13.20
2023-02-16T22:21:39.450Z,12.80
2023-02-16T22:24:07.397Z,11.73
2023-02-16T22:26:35.901Z,12.30
2023-02-16T22:29:05.122Z,12.37
2023-02-16T22:31:31.959Z,11.90
2023-02-16T22:34:07.525Z,12.33
2023-02-16T22:36:35.705Z,13.20
2023-02-16T22:39:02.542Z,13.73
2023-02-16T22:41:29.273Z,12.87
2023-02-16T22:43:56.715Z,14.23
2023-02-16T22:46:24.819Z,12.20
2023-02-16T22:48:52.742Z,13.20
2023-02-16T22:51:21.541Z,13.57
2023-02-16T22:53:48.730Z,13.93
2023-02-16T22:56:17.769Z,14.67
2023-02-16T22:58:45.144Z,15.40
2023-02-16T23:01:18.473Z,13.87
2023-02-16T23:03:58.737Z,16.50
2023-02-16T23:06:29.154Z,15.70
2023-02-16T23:08:59.230Z,14.90
2023-02-16T23:11:26.988Z,16.50
2023-02-16T23:13:54.569Z,16.50
2023-02-16T23:16:24.482Z,16.87
2023-02-16T23:18:51.737Z,16.67
2023-02-16T23:21:24.346Z,16.50
2023-02-16T23:23:52.633Z,15.80
2023-02-16T23:26:21.965Z,16.40
2023-02-16T23:28:56.369Z,16.50
2023-02-16T23:31:23.397Z,14.53
2023-02-16T23:33:50.735Z,16.60
2023-02-16T23:36:17.996Z,15.50
2023-02-16T23:38:44.774Z,15.90
2023-02-16T23:41:13.426Z,14.60
2023-02-16T23:43:40.780Z,15.30
2023-02-16T23:46:08.435Z,13.47
2023-02-16T23:48:35.808Z,14.20
2023-02-16T23:51:02.532Z,15.20
2023-02-16T23:53:29.636Z,14.13
2023-02-16T23:56:08.203Z,14.13
2023-02-16T23:58:37.632Z,13.93
